sensor_id;sensor_type;location;lat;lon;timestamp;P1;durP1;ratioP1;P2;durP2;ratioP2
33672;SDS011;20011;51.510;9.942;2022-09-20T00:01:09;8.20;;;1.80;;
33672;SDS011;20011;51.510;9.942;2022-09-20T00:03:50;10.23;;;2.10;;
33672;SDS011;20011;51.510;9.942;2022-09-20T00:06:24;8.80;;;1.35;;
33672;SDS011;20011;51.510;9.942;2022-09-20T00:08:53;12.98;;;2.08;;
33672;SDS011;20011;51.510;9.942;2022-09-20T00:11:23;8.18;;;1.75;;
33672;SDS011;20011;51.510;9.942;2022-09-20T00:13:55;8.15;;;1.98;;
33672;SDS011;20011;51.510;9.942;2022-09-20T00:16:25;10.27;;;1.88;;
33672;SDS011;20011;51.510;9.942;2022-09-20T00:18:55;5.38;;;1.38;;
33672;SDS011;20011;51.510;9.942;2022-09-20T00:21:27;7.88;;;1.65;;
33672;SDS011;20011;51.510;9.942;2022-09-20T00:23:56;6.50;;;1.92;;
33672;SDS011;20011;51.510;9.942;2022-09-20T00:26:24;5.65;;;1.83;;
33672;SDS011;20011;51.510;9.942;2022-09-20T00:28:52;14.63;;;2.05;;
33672;SDS011;20011;51.510;9.942;2022-09-20T00:31:19;7.28;;;1.63;;
33672;SDS011;20011;51.510;9.942;2022-09-20T00:33:46;6.00;;;1.60;;
33672;SDS011;20011;51.510;9.942;2022-09-20T00:36:31;7.22;;;1.92;;
33672;SDS011;20011;51.510;9.942;2022-09-20T00:38:59;8.07;;;1.90;;
33672;SDS011;20011;51.510;9.942;2022-09-20T00:41:27;5.75;;;1.98;;
33672;SDS011;20011;51.510;9.942;2022-09-20T00:43:55;8.25;;;1.98;;
33672;SDS011;20011;51.510;9.942;2022-09-20T00:46:37;5.45;;;1.70;;
33672;SDS011;20011;51.510;9.942;2022-09-20T00:49:19;6.03;;;1.77;;
33672;SDS011;20011;51.510;9.942;2022-09-20T00:51:53;16.05;;;2.53;;
33672;SDS011;20011;51.510;9.942;2022-09-20T00:54:26;9.27;;;1.90;;
33672;SDS011;20011;51.510;9.942;2022-09-20T00:56:55;7.17;;;1.80;;
33672;SDS011;20011;51.510;9.942;2022-09-20T00:59:24;5.97;;;1.50;;
33672;SDS011;20011;51.510;9.942;2022-09-20T01:02:33;8.82;;;1.92;;
33672;SDS011;20011;51.510;9.942;2022-09-20T01:04:56;5.65;;;1.70;;
33672;SDS011;20011;51.510;9.942;2022-09-20T01:07:24;11.80;;;2.10;;
33672;SDS011;20011;51.510;9.942;2022-09-20T01:09:52;8.25;;;1.80;;
33672;SDS011;20011;51.510;9.942;2022-09-20T01:12:23;11.65;;;2.13;;
33672;SDS011;20011;51.510;9.942;2022-09-20T01:14:53;10.73;;;2.60;;
33672;SDS011;20011;51.510;9.942;2022-09-20T01:17:22;7.28;;;1.85;;
33672;SDS011;20011;51.510;9.942;2022-09-20T01:28:07;10.90;;;2.00;;
33672;SDS011;20011;51.510;9.942;2022-09-20T01:30:44;8.15;;;2.65;;
33672;SDS011;20011;51.510;9.942;2022-09-20T01:36:25;13.38;;;2.53;;
33672;SDS011;20011;51.510;9.942;2022-09-20T01:39:10;11.60;;;2.00;;
33672;SDS011;20011;51.510;9.942;2022-09-20T01:42:03;6.95;;;1.73;;
33672;SDS011;20011;51.510;9.942;2022-09-20T01:44:55;6.57;;;1.50;;
33672;SDS011;20011;51.510;9.942;2022-09-20T01:50:41;7.82;;;1.63;;
33672;SDS011;20011;51.510;9.942;2022-09-20T01:56:27;6.78;;;1.67;;
33672;SDS011;20011;51.510;9.942;2022-09-20T02:02:08;13.63;;;3.28;;
33672;SDS011;20011;51.510;9.942;2022-09-20T02:13:10;7.97;;;2.15;;
33672;SDS011;20011;51.510;9.942;2022-09-20T02:16:10;10.15;;;2.15;;
33672;SDS011;20011;51.510;9.942;2022-09-20T02:19:44;11.75;;;1.98;;
33672;SDS011;20011;51.510;9.942;2022-09-20T02:22:33;15.30;;;1.77;;
33672;SDS011;20011;51.510;9.942;2022-09-20T02:30:52;15.32;;;2.63;;
33672;SDS011;20011;51.510;9.942;2022-09-20T02:36:14;10.88;;;3.22;;
33672;SDS011;20011;51.510;9.942;2022-09-20T02:47:30;7.85;;;2.30;;
33672;SDS011;20011;51.510;9.942;2022-09-20T02:52:48;9.90;;;2.50;;
33672;SDS011;20011;51.510;9.942;2022-09-20T02:55:41;9.13;;;1.95;;
33672;SDS011;20011;51.510;9.942;2022-09-20T03:04:06;6.65;;;1.90;;
33672;SDS011;20011;51.510;9.942;2022-09-20T03:14:44;8.15;;;2.50;;
33672;SDS011;20011;51.510;9.942;2022-09-20T03:20:27;8.63;;;2.33;;
33672;SDS011;20011;51.510;9.942;2022-09-20T03:50:59;11.18;;;2.30;;
33672;SDS011;20011;51.510;9.942;2022-09-20T03:53:48;8.40;;;2.28;;
33672;SDS011;20011;51.510;9.942;2022-09-20T04:07:57;9.27;;;2.25;;
33672;SDS011;20011;51.510;9.942;2022-09-20T04:10:23;10.70;;;2.53;;
33672;SDS011;20011;51.510;9.942;2022-09-20T04:16:12;8.85;;;2.30;;
33672;SDS011;20011;51.510;9.942;2022-09-20T04:19:13;15.38;;;2.63;;
33672;SDS011;20011;51.510;9.942;2022-09-20T04:21:55;10.65;;;2.47;;
33672;SDS011;20011;51.510;9.942;2022-09-20T04:26:58;8.48;;;2.20;;
33672;SDS011;20011;51.510;9.942;2022-09-20T04:29:54;9.45;;;2.17;;
33672;SDS011;20011;51.510;9.942;2022-09-20T04:32:30;11.50;;;2.28;;
33672;SDS011;20011;51.510;9.942;2022-09-20T04:38:32;4.45;;;1.88;;
33672;SDS011;20011;51.510;9.942;2022-09-20T05:00:23;5.47;;;2.10;;
33672;SDS011;20011;51.510;9.942;2022-09-20T05:05:31;14.13;;;2.15;;
33672;SDS011;20011;51.510;9.942;2022-09-20T05:11:14;5.07;;;2.15;;
33672;SDS011;20011;51.510;9.942;2022-09-20T05:14:20;6.30;;;1.77;;
33672;SDS011;20011;51.510;9.942;2022-09-20T05:17:19;11.15;;;2.67;;
33672;SDS011;20011;51.510;9.942;2022-09-20T05:25:46;6.07;;;2.28;;
33672;SDS011;20011;51.510;9.942;2022-09-20T05:34:29;10.43;;;2.53;;
33672;SDS011;20011;51.510;9.942;2022-09-20T05:37:15;8.63;;;2.00;;
33672;SDS011;20011;51.510;9.942;2022-09-20T05:40:05;15.00;;;2.83;;
33672;SDS011;20011;51.510;9.942;2022-09-20T05:51:34;12.60;;;2.92;;
33672;SDS011;20011;51.510;9.942;2022-09-20T06:00:06;11.45;;;2.75;;
33672;SDS011;20011;51.510;9.942;2022-09-20T06:02:45;9.32;;;2.08;;
33672;SDS011;20011;51.510;9.942;2022-09-20T06:05:46;10.95;;;3.03;;
33672;SDS011;20011;51.510;9.942;2022-09-20T06:11:16;11.43;;;3.03;;
33672;SDS011;20011;51.510;9.942;2022-09-20T06:22:03;9.27;;;2.47;;
33672;SDS011;20011;51.510;9.942;2022-09-20T06:27:32;6.35;;;2.10;;
33672;SDS011;20011;51.510;9.942;2022-09-20T06:30:06;10.40;;;2.33;;
33672;SDS011;20011;51.510;9.942;2022-09-20T06:32:59;8.48;;;2.47;;
33672;SDS011;20011;51.510;9.942;2022-09-20T06:35:36;8.02;;;2.53;;
33672;SDS011;20011;51.510;9.942;2022-09-20T06:41:27;9.48;;;2.25;;
33672;SDS011;20011;51.510;9.942;2022-09-20T06:44:02;7.45;;;1.67;;
33672;SDS011;20011;51.510;9.942;2022-09-20T06:46:31;12.02;;;2.55;;
33672;SDS011;20011;51.510;9.942;2022-09-20T06:49:01;9.32;;;2.00;;
33672;SDS011;20011;51.510;9.942;2022-09-20T06:51:32;7.47;;;2.13;;
33672;SDS011;20011;51.510;9.942;2022-09-20T06:54:01;11.65;;;2.45;;
33672;SDS011;20011;51.510;9.942;2022-09-20T06:56:29;10.68;;;2.20;;
33672;SDS011;20011;51.510;9.942;2022-09-20T06:59:02;6.63;;;2.15;;
33672;SDS011;20011;51.510;9.942;2022-09-20T07:01:31;13.18;;;2.58;;
33672;SDS011;20011;51.510;9.942;2022-09-20T07:03:58;6.65;;;2.10;;
33672;SDS011;20011;51.510;9.942;2022-09-20T07:06:25;8.63;;;2.40;;
33672;SDS011;20011;51.510;9.942;2022-09-20T07:08:52;6.78;;;2.00;;
33672;SDS011;20011;51.510;9.942;2022-09-20T07:11:19;4.93;;;1.73;;
33672;SDS011;20011;51.510;9.942;2022-09-20T07:13:49;10.45;;;2.13;;
33672;SDS011;20011;51.510;9.942;2022-09-20T07:16:18;5.97;;;1.67;;
33672;SDS011;20011;51.510;9.942;2022-09-20T07:18:46;9.57;;;2.35;;
33672;SDS011;20011;51.510;9.942;2022-09-20T07:21:14;13.73;;;2.10;;
33672;SDS011;20011;51.510;9.942;2022-09-20T07:23:43;7.10;;;1.92;;
33672;SDS011;20011;51.510;9.942;2022-09-20T07:26:29;8.77;;;1.90;;
33672;SDS011;20011;51.510;9.942;2022-09-20T07:28:57;8.82;;;2.10;;
33672;SDS011;20011;51.510;9.942;2022-09-20T07:31:26;5.05;;;1.90;;
33672;SDS011;20011;51.510;9.942;2022-09-20T07:33:54;11.30;;;2.40;;
33672;SDS011;20011;51.510;9.942;2022-09-20T07:36:21;8.43;;;2.28;;
33672;SDS011;20011;51.510;9.942;2022-09-20T07:38:49;9.23;;;3.05;;
33672;SDS011;20011;51.510;9.942;2022-09-20T07:41:18;14.02;;;2.88;;
33672;SDS011;20011;51.510;9.942;2022-09-20T07:43:48;7.20;;;2.63;;
33672;SDS011;20011;51.510;9.942;2022-09-20T07:46:16;13.13;;;3.00;;
33672;SDS011;20011;51.510;9.942;2022-09-20T07:48:46;12.80;;;3.30;;
33672;SDS011;20011;51.510;9.942;2022-09-20T07:51:12;14.80;;;2.70;;
33672;SDS011;20011;51.510;9.942;2022-09-20T07:53:40;6.05;;;2.42;;
33672;SDS011;20011;51.510;9.942;2022-09-20T07:56:10;23.77;;;2.83;;
33672;SDS011;20011;51.510;9.942;2022-09-20T07:58:38;14.02;;;3.15;;
33672;SDS011;20011;51.510;9.942;2022-09-20T08:01:08;8.93;;;2.30;;
33672;SDS011;20011;51.510;9.942;2022-09-20T08:03:36;9.90;;;3.05;;
33672;SDS011;20011;51.510;9.942;2022-09-20T08:06:05;14.35;;;3.28;;
33672;SDS011;20011;51.510;9.942;2022-09-20T08:08:34;12.45;;;3.20;;
33672;SDS011;20011;51.510;9.942;2022-09-20T08:11:06;8.75;;;2.67;;
33672;SDS011;20011;51.510;9.942;2022-09-20T08:13:36;5.32;;;1.95;;
33672;SDS011;20011;51.510;9.942;2022-09-20T08:16:24;13.00;;;2.17;;
33672;SDS011;20011;51.510;9.942;2022-09-20T08:18:54;4.28;;;2.00;;
33672;SDS011;20011;51.510;9.942;2022-09-20T08:21:26;11.05;;;2.50;;
33672;SDS011;20011;51.510;9.942;2022-09-20T08:23:57;8.98;;;2.08;;
33672;SDS011;20011;51.510;9.942;2022-09-20T08:26:26;12.15;;;2.72;;
33672;SDS011;20011;51.510;9.942;2022-09-20T08:28:54;8.10;;;1.73;;
33672;SDS011;20011;51.510;9.942;2022-09-20T08:31:24;5.97;;;2.25;;
33672;SDS011;20011;51.510;9.942;2022-09-20T08:33:52;6.63;;;2.22;;
33672;SDS011;20011;51.510;9.942;2022-09-20T08:36:23;6.57;;;2.60;;
33672;SDS011;20011;51.510;9.942;2022-09-20T08:38:51;9.27;;;2.45;;
33672;SDS011;20011;51.510;9.942;2022-09-20T08:41:46;7.90;;;2.30;;
33672;SDS011;20011;51.510;9.942;2022-09-20T08:44:30;13.10;;;2.60;;
33672;SDS011;20011;51.510;9.942;2022-09-20T08:49:43;14.43;;;3.05;;
33672;SDS011;20011;51.510;9.942;2022-09-20T08:55:04;11.30;;;3.72;;
33672;SDS011;20011;51.510;9.942;2022-09-20T08:57:42;11.80;;;3.27;;
33672;SDS011;20011;51.510;9.942;2022-09-20T09:00:15;8.63;;;3.05;;
33672;SDS011;20011;51.510;9.942;2022-09-20T09:02:45;18.48;;;3.97;;
33672;SDS011;20011;51.510;9.942;2022-09-20T09:05:24;8.18;;;3.17;;
33672;SDS011;20011;51.510;9.942;2022-09-20T09:07:53;14.40;;;3.97;;
33672;SDS011;20011;51.510;9.942;2022-09-20T09:10:20;14.32;;;3.03;;
33672;SDS011;20011;51.510;9.942;2022-09-20T09:12:47;9.15;;;3.03;;
33672;SDS011;20011;51.510;9.942;2022-09-20T09:15:23;17.38;;;3.67;;
33672;SDS011;20011;51.510;9.942;2022-09-20T09:17:55;8.70;;;3.10;;
33672;SDS011;20011;51.510;9.942;2022-09-20T09:20:22;5.15;;;3.22;;
33672;SDS011;20011;51.510;9.942;2022-09-20T09:23:00;8.27;;;3.22;;
33672;SDS011;20011;51.510;9.942;2022-09-20T09:25:36;12.07;;;2.88;;
33672;SDS011;20011;51.510;9.942;2022-09-20T09:30:38;9.75;;;3.50;;
33672;SDS011;20011;51.510;9.942;2022-09-20T09:33:21;10.02;;;2.80;;
33672;SDS011;20011;51.510;9.942;2022-09-20T09:38:29;13.27;;;3.53;;
33672;SDS011;20011;51.510;9.942;2022-09-20T09:41:00;11.23;;;2.60;;
33672;SDS011;20011;51.510;9.942;2022-09-20T09:43:29;8.52;;;2.60;;
33672;SDS011;20011;51.510;9.942;2022-09-20T09:46:20;7.53;;;2.85;;
33672;SDS011;20011;51.510;9.942;2022-09-20T09:49:09;8.82;;;2.67;;
33672;SDS011;20011;51.510;9.942;2022-09-20T09:51:38;8.30;;;2.08;;
33672;SDS011;20011;51.510;9.942;2022-09-20T09:54:11;10.23;;;2.97;;
33672;SDS011;20011;51.510;9.942;2022-09-20T09:56:49;9.35;;;2.58;;
33672;SDS011;20011;51.510;9.942;2022-09-20T10:02:06;10.35;;;2.55;;
33672;SDS011;20011;51.510;9.942;2022-09-20T10:07:38;13.27;;;2.33;;
33672;SDS011;20011;51.510;9.942;2022-09-20T10:10:21;9.43;;;2.67;;
33672;SDS011;20011;51.510;9.942;2022-09-20T10:12:55;10.38;;;3.00;;
33672;SDS011;20011;51.510;9.942;2022-09-20T10:19:19;10.65;;;3.85;;
33672;SDS011;20011;51.510;9.942;2022-09-20T10:28:32;13.13;;;2.78;;
33672;SDS011;20011;51.510;9.942;2022-09-20T10:39:22;13.45;;;2.67;;
33672;SDS011;20011;51.510;9.942;2022-09-20T10:45:18;6.68;;;2.33;;
33672;SDS011;20011;51.510;9.942;2022-09-20T10:56:43;16.00;;;2.22;;
33672;SDS011;20011;51.510;9.942;2022-09-20T10:59:21;9.50;;;2.60;;
33672;SDS011;20011;51.510;9.942;2022-09-20T11:04:48;6.18;;;1.90;;
33672;SDS011;20011;51.510;9.942;2022-09-20T11:12:52;7.38;;;1.75;;
33672;SDS011;20011;51.510;9.942;2022-09-20T11:15:43;7.90;;;1.65;;
33672;SDS011;20011;51.510;9.942;2022-09-20T11:18:41;7.13;;;1.83;;
33672;SDS011;20011;51.510;9.942;2022-09-20T11:21:23;13.57;;;2.47;;
33672;SDS011;20011;51.510;9.942;2022-09-20T11:27:18;7.15;;;2.58;;
33672;SDS011;20011;51.510;9.942;2022-09-20T11:29:56;10.73;;;2.33;;
33672;SDS011;20011;51.510;9.942;2022-09-20T11:37:47;8.27;;;2.08;;
33672;SDS011;20011;51.510;9.942;2022-09-20T11:40:31;13.93;;;2.90;;
33672;SDS011;20011;51.510;9.942;2022-09-20T11:43:06;9.00;;;1.92;;
33672;SDS011;20011;51.510;9.942;2022-09-20T11:45:35;7.53;;;1.42;;
33672;SDS011;20011;51.510;9.942;2022-09-20T11:56:36;2.17;;;1.30;;
33672;SDS011;20011;51.510;9.942;2022-09-20T11:59:05;5.43;;;1.30;;
33672;SDS011;20011;51.510;9.942;2022-09-20T12:01:48;10.07;;;1.73;;
33672;SDS011;20011;51.510;9.942;2022-09-20T12:04:23;5.90;;;1.42;;
33672;SDS011;20011;51.510;9.942;2022-09-20T12:10:06;9.73;;;1.40;;
33672;SDS011;20011;51.510;9.942;2022-09-20T12:12:48;6.50;;;1.48;;
33672;SDS011;20011;51.510;9.942;2022-09-20T12:15:37;10.50;;;1.50;;
33672;SDS011;20011;51.510;9.942;2022-09-20T12:18:07;9.68;;;1.50;;
33672;SDS011;20011;51.510;9.942;2022-09-20T12:21:03;7.53;;;1.42;;
33672;SDS011;20011;51.510;9.942;2022-09-20T12:26:10;6.00;;;1.88;;
33672;SDS011;20011;51.510;9.942;2022-09-20T12:36:29;11.82;;;1.27;;
33672;SDS011;20011;51.510;9.942;2022-09-20T12:39:02;5.97;;;1.25;;
33672;SDS011;20011;51.510;9.942;2022-09-20T12:41:55;18.00;;;2.40;;
33672;SDS011;20011;51.510;9.942;2022-09-20T12:44:24;16.83;;;3.42;;
33672;SDS011;20011;51.510;9.942;2022-09-20T12:49:36;8.80;;;1.20;;
33672;SDS011;20011;51.510;9.942;2022-09-20T12:58:19;6.13;;;1.23;;
33672;SDS011;20011;51.510;9.942;2022-09-20T13:03:44;2.55;;;1.25;;
33672;SDS011;20011;51.510;9.942;2022-09-20T13:08:48;5.60;;;1.45;;
33672;SDS011;20011;51.510;9.942;2022-09-20T13:14:12;9.43;;;1.63;;
33672;SDS011;20011;51.510;9.942;2022-09-20T13:22:22;4.60;;;1.90;;
33672;SDS011;20011;51.510;9.942;2022-09-20T13:24:57;5.32;;;2.25;;
33672;SDS011;20011;51.510;9.942;2022-09-20T13:27:32;8.05;;;1.92;;
33672;SDS011;20011;51.510;9.942;2022-09-20T13:32:42;6.72;;;2.20;;
33672;SDS011;20011;51.510;9.942;2022-09-20T13:35:20;7.90;;;2.00;;
33672;SDS011;20011;51.510;9.942;2022-09-20T13:40:32;4.45;;;1.67;;
33672;SDS011;20011;51.510;9.942;2022-09-20T13:43:02;5.80;;;2.03;;
33672;SDS011;20011;51.510;9.942;2022-09-20T13:45:51;4.97;;;1.88;;
33672;SDS011;20011;51.510;9.942;2022-09-20T13:48:23;3.55;;;1.20;;
33672;SDS011;20011;51.510;9.942;2022-09-20T13:50:55;2.70;;;1.20;;
33672;SDS011;20011;51.510;9.942;2022-09-20T13:53:23;1.20;;;0.70;;
33672;SDS011;20011;51.510;9.942;2022-09-20T13:56:15;0.50;;;0.50;;
33672;SDS011;20011;51.510;9.942;2022-09-20T13:58:47;1.25;;;0.60;;
33672;SDS011;20011;51.510;9.942;2022-09-20T14:01:28;3.67;;;0.80;;
33672;SDS011;20011;51.510;9.942;2022-09-20T14:04:14;2.85;;;0.75;;
33672;SDS011;20011;51.510;9.942;2022-09-20T14:06:43;5.88;;;1.00;;
33672;SDS011;20011;51.510;9.942;2022-09-20T14:09:45;1.60;;;1.20;;
33672;SDS011;20011;51.510;9.942;2022-09-20T14:12:05;4.88;;;1.23;;
33672;SDS011;20011;51.510;9.942;2022-09-20T14:14:33;1.50;;;0.70;;
33672;SDS011;20011;51.510;9.942;2022-09-20T14:17:03;2.05;;;0.73;;
33672;SDS011;20011;51.510;9.942;2022-09-20T14:19:32;1.13;;;0.52;;
33672;SDS011;20011;51.510;9.942;2022-09-20T14:22:05;0.60;;;0.60;;
33672;SDS011;20011;51.510;9.942;2022-09-20T14:24:34;3.90;;;0.93;;
33672;SDS011;20011;51.510;9.942;2022-09-20T14:27:20;3.53;;;0.55;;
33672;SDS011;20011;51.510;9.942;2022-09-20T14:29:49;1.17;;;0.75;;
33672;SDS011;20011;51.510;9.942;2022-09-20T14:32:23;3.45;;;0.60;;
33672;SDS011;20011;51.510;9.942;2022-09-20T14:37:45;0.75;;;0.47;;
33672;SDS011;20011;51.510;9.942;2022-09-20T14:40:27;2.53;;;0.50;;
33672;SDS011;20011;51.510;9.942;2022-09-20T14:43:03;4.20;;;0.70;;
33672;SDS011;20011;51.510;9.942;2022-09-20T14:45:35;5.28;;;1.17;;
33672;SDS011;20011;51.510;9.942;2022-09-20T14:53:19;4.03;;;0.80;;
33672;SDS011;20011;51.510;9.942;2022-09-20T14:55:55;4.97;;;1.10;;
33672;SDS011;20011;51.510;9.942;2022-09-20T14:58:24;6.55;;;0.90;;
33672;SDS011;20011;51.510;9.942;2022-09-20T15:00:52;1.25;;;0.95;;
33672;SDS011;20011;51.510;9.942;2022-09-20T15:03:36;2.40;;;0.85;;
33672;SDS011;20011;51.510;9.942;2022-09-20T15:06:10;5.22;;;0.98;;
33672;SDS011;20011;51.510;9.942;2022-09-20T15:08:38;4.75;;;0.60;;
33672;SDS011;20011;51.510;9.942;2022-09-20T15:11:17;2.45;;;0.68;;
33672;SDS011;20011;51.510;9.942;2022-09-20T15:13:45;3.80;;;0.60;;
33672;SDS011;20011;51.510;9.942;2022-09-20T15:16:12;3.25;;;0.45;;
33672;SDS011;20011;51.510;9.942;2022-09-20T15:18:41;2.47;;;1.15;;
33672;SDS011;20011;51.510;9.942;2022-09-20T15:21:09;4.20;;;0.88;;
33672;SDS011;20011;51.510;9.942;2022-09-20T15:23:37;2.13;;;0.60;;
33672;SDS011;20011;51.510;9.942;2022-09-20T15:26:04;3.30;;;0.75;;
33672;SDS011;20011;51.510;9.942;2022-09-20T15:28:32;11.20;;;1.30;;
33672;SDS011;20011;51.510;9.942;2022-09-20T15:31:00;4.85;;;1.40;;
33672;SDS011;20011;51.510;9.942;2022-09-20T15:33:28;7.75;;;1.25;;
33672;SDS011;20011;51.510;9.942;2022-09-20T15:38:24;4.93;;;1.00;;
33672;SDS011;20011;51.510;9.942;2022-09-20T15:40:54;3.30;;;0.73;;
33672;SDS011;20011;51.510;9.942;2022-09-20T15:43:22;5.90;;;1.02;;
33672;SDS011;20011;51.510;9.942;2022-09-20T15:45:55;4.50;;;1.50;;
33672;SDS011;20011;51.510;9.942;2022-09-20T15:48:58;5.72;;;1.27;;
33672;SDS011;20011;51.510;9.942;2022-09-20T15:51:28;4.55;;;1.10;;
33672;SDS011;20011;51.510;9.942;2022-09-20T15:56:28;3.72;;;1.00;;
33672;SDS011;20011;51.510;9.942;2022-09-20T15:58:57;3.53;;;1.10;;
33672;SDS011;20011;51.510;9.942;2022-09-20T16:03:58;3.72;;;0.60;;
33672;SDS011;20011;51.510;9.942;2022-09-20T16:06:25;1.98;;;0.75;;
33672;SDS011;20011;51.510;9.942;2022-09-20T16:08:52;5.07;;;1.23;;
33672;SDS011;20011;51.510;9.942;2022-09-20T16:11:21;4.20;;;1.00;;
33672;SDS011;20011;51.510;9.942;2022-09-20T16:13:52;1.90;;;0.82;;
33672;SDS011;20011;51.510;9.942;2022-09-20T16:16:20;2.85;;;1.02;;
33672;SDS011;20011;51.510;9.942;2022-09-20T16:18:47;5.22;;;1.23;;
33672;SDS011;20011;51.510;9.942;2022-09-20T16:21:33;2.80;;;0.70;;
33672;SDS011;20011;51.510;9.942;2022-09-20T16:24:01;6.95;;;1.45;;
33672;SDS011;20011;51.510;9.942;2022-09-20T16:26:30;3.67;;;1.40;;
33672;SDS011;20011;51.510;9.942;2022-09-20T16:28:59;5.15;;;1.00;;
33672;SDS011;20011;51.510;9.942;2022-09-20T16:31:34;2.88;;;0.90;;
33672;SDS011;20011;51.510;9.942;2022-09-20T16:34:16;3.95;;;1.00;;
33672;SDS011;20011;51.510;9.942;2022-09-20T16:36:48;7.25;;;1.23;;
33672;SDS011;20011;51.510;9.942;2022-09-20T16:39:17;3.90;;;1.42;;
33672;SDS011;20011;51.510;9.942;2022-09-20T16:41:45;8.18;;;1.20;;
33672;SDS011;20011;51.510;9.942;2022-09-20T16:44:14;3.78;;;1.20;;
33672;SDS011;20011;51.510;9.942;2022-09-20T16:46:41;4.28;;;1.20;;
33672;SDS011;20011;51.510;9.942;2022-09-20T16:49:09;3.83;;;1.05;;
33672;SDS011;20011;51.510;9.942;2022-09-20T16:51:39;3.30;;;1.20;;
33672;SDS011;20011;51.510;9.942;2022-09-20T16:54:11;4.37;;;1.03;;
33672;SDS011;20011;51.510;9.942;2022-09-20T16:56:41;5.85;;;1.80;;
33672;SDS011;20011;51.510;9.942;2022-09-20T16:59:10;3.83;;;1.52;;
33672;SDS011;20011;51.510;9.942;2022-09-20T17:01:38;15.65;;;5.90;;
33672;SDS011;20011;51.510;9.942;2022-09-20T17:04:06;8.07;;;3.67;;
33672;SDS011;20011;51.510;9.942;2022-09-20T17:06:34;9.27;;;4.55;;
33672;SDS011;20011;51.510;9.942;2022-09-20T17:09:03;7.67;;;3.67;;
33672;SDS011;20011;51.510;9.942;2022-09-20T17:11:33;14.60;;;9.90;;
33672;SDS011;20011;51.510;9.942;2022-09-20T17:14:05;37.13;;;20.38;;
33672;SDS011;20011;51.510;9.942;2022-09-20T17:16:33;23.42;;;15.15;;
33672;SDS011;20011;51.510;9.942;2022-09-20T17:19:04;32.35;;;20.20;;
33672;SDS011;20011;51.510;9.942;2022-09-20T17:21:33;26.10;;;16.08;;
33672;SDS011;20011;51.510;9.942;2022-09-20T17:24:02;25.10;;;13.63;;
33672;SDS011;20011;51.510;9.942;2022-09-20T17:26:35;5.35;;;3.60;;
33672;SDS011;20011;51.510;9.942;2022-09-20T17:29:04;5.82;;;2.80;;
33672;SDS011;20011;51.510;9.942;2022-09-20T17:31:34;8.65;;;1.90;;
33672;SDS011;20011;51.510;9.942;2022-09-20T17:34:04;3.35;;;1.33;;
33672;SDS011;20011;51.510;9.942;2022-09-20T17:36:34;4.43;;;1.42;;
33672;SDS011;20011;51.510;9.942;2022-09-20T17:39:04;7.05;;;1.23;;
33672;SDS011;20011;51.510;9.942;2022-09-20T17:41:33;2.83;;;0.90;;
33672;SDS011;20011;51.510;9.942;2022-09-20T17:44:02;2.05;;;0.80;;
33672;SDS011;20011;51.510;9.942;2022-09-20T17:46:38;3.58;;;0.98;;
33672;SDS011;20011;51.510;9.942;2022-09-20T17:49:07;4.40;;;1.20;;
33672;SDS011;20011;51.510;9.942;2022-09-20T17:51:37;5.53;;;1.10;;
33672;SDS011;20011;51.510;9.942;2022-09-20T17:54:09;7.65;;;1.75;;
33672;SDS011;20011;51.510;9.942;2022-09-20T17:56:40;2.17;;;0.90;;
33672;SDS011;20011;51.510;9.942;2022-09-20T17:59:10;3.13;;;0.90;;
33672;SDS011;20011;51.510;9.942;2022-09-20T18:01:41;1.75;;;1.00;;
33672;SDS011;20011;51.510;9.942;2022-09-20T18:04:10;5.82;;;1.77;;
33672;SDS011;20011;51.510;9.942;2022-09-20T18:06:38;4.72;;;1.40;;
33672;SDS011;20011;51.510;9.942;2022-09-20T18:09:08;3.47;;;1.65;;
33672;SDS011;20011;51.510;9.942;2022-09-20T18:11:38;3.38;;;0.90;;
33672;SDS011;20011;51.510;9.942;2022-09-20T18:14:08;2.58;;;0.80;;
33672;SDS011;20011;51.510;9.942;2022-09-20T18:16:36;2.53;;;0.90;;
33672;SDS011;20011;51.510;9.942;2022-09-20T18:19:04;0.68;;;0.60;;
33672;SDS011;20011;51.510;9.942;2022-09-20T18:21:32;3.58;;;1.40;;
33672;SDS011;20011;51.510;9.942;2022-09-20T18:24:03;10.15;;;1.15;;
33672;SDS011;20011;51.510;9.942;2022-09-20T18:26:31;2.67;;;1.02;;
33672;SDS011;20011;51.510;9.942;2022-09-20T18:29:05;1.10;;;1.00;;
33672;SDS011;20011;51.510;9.942;2022-09-20T18:31:41;3.55;;;0.80;;
33672;SDS011;20011;51.510;9.942;2022-09-20T18:34:13;4.38;;;1.10;;
33672;SDS011;20011;51.510;9.942;2022-09-20T18:36:45;3.22;;;1.25;;
33672;SDS011;20011;51.510;9.942;2022-09-20T18:39:20;5.05;;;1.10;;
33672;SDS011;20011;51.510;9.942;2022-09-20T18:41:52;3.95;;;0.93;;
33672;SDS011;20011;51.510;9.942;2022-09-20T18:44:20;4.80;;;1.50;;
33672;SDS011;20011;51.510;9.942;2022-09-20T18:46:48;7.88;;;2.30;;
33672;SDS011;20011;51.510;9.942;2022-09-20T18:49:20;2.33;;;1.20;;
33672;SDS011;20011;51.510;9.942;2022-09-20T18:51:48;2.78;;;1.15;;
33672;SDS011;20011;51.510;9.942;2022-09-20T18:54:15;2.25;;;1.30;;
33672;SDS011;20011;51.510;9.942;2022-09-20T18:56:44;2.15;;;1.17;;
33672;SDS011;20011;51.510;9.942;2022-09-20T18:59:18;8.27;;;1.00;;
33672;SDS011;20011;51.510;9.942;2022-09-20T19:21:44;3.05;;;1.90;;
33672;SDS011;20011;51.510;9.942;2022-09-20T19:24:27;4.03;;;1.50;;
33672;SDS011;20011;51.510;9.942;2022-09-20T19:27:11;3.42;;;1.40;;
33672;SDS011;20011;51.510;9.942;2022-09-20T19:29:39;3.42;;;1.75;;
33672;SDS011;20011;51.510;9.942;2022-09-20T19:32:10;2.55;;;1.85;;
33672;SDS011;20011;51.510;9.942;2022-09-20T19:34:42;7.18;;;1.95;;
33672;SDS011;20011;51.510;9.942;2022-09-20T19:48:20;10.50;;;4.25;;
33672;SDS011;20011;51.510;9.942;2022-09-20T19:50:53;4.78;;;3.38;;
33672;SDS011;20011;51.510;9.942;2022-09-20T19:53:20;7.40;;;4.40;;
33672;SDS011;20011;51.510;9.942;2022-09-20T19:55:56;5.38;;;4.35;;
33672;SDS011;20011;51.510;9.942;2022-09-20T19:58:28;5.57;;;3.15;;
33672;SDS011;20011;51.510;9.942;2022-09-20T20:00:56;3.47;;;2.25;;
33672;SDS011;20011;51.510;9.942;2022-09-20T20:03:23;5.13;;;2.33;;
33672;SDS011;20011;51.510;9.942;2022-09-20T20:08:45;2.42;;;1.90;;
33672;SDS011;20011;51.510;9.942;2022-09-20T20:11:33;4.38;;;2.35;;
33672;SDS011;20011;51.510;9.942;2022-09-20T20:14:37;3.13;;;2.28;;
33672;SDS011;20011;51.510;9.942;2022-09-20T20:28:08;6.13;;;3.05;;
33672;SDS011;20011;51.510;9.942;2022-09-20T20:30:35;5.35;;;2.97;;
33672;SDS011;20011;51.510;9.942;2022-09-20T20:33:02;4.50;;;2.80;;
33672;SDS011;20011;51.510;9.942;2022-09-20T20:35:31;5.18;;;2.97;;
33672;SDS011;20011;51.510;9.942;2022-09-20T20:37:58;3.97;;;2.80;;
33672;SDS011;20011;51.510;9.942;2022-09-20T20:40:25;4.38;;;2.70;;
33672;SDS011;20011;51.510;9.942;2022-09-20T20:42:54;3.72;;;2.60;;
33672;SDS011;20011;51.510;9.942;2022-09-20T20:45:27;6.15;;;2.20;;
33672;SDS011;20011;51.510;9.942;2022-09-20T20:47:58;5.15;;;2.25;;
33672;SDS011;20011;51.510;9.942;2022-09-20T20:50:25;6.65;;;2.83;;
33672;SDS011;20011;51.510;9.942;2022-09-20T20:52:54;3.83;;;2.17;;
33672;SDS011;20011;51.510;9.942;2022-09-20T20:55:22;4.45;;;2.78;;
33672;SDS011;20011;51.510;9.942;2022-09-20T20:57:53;5.47;;;2.47;;
33672;SDS011;20011;51.510;9.942;2022-09-20T21:00:24;4.57;;;2.38;;
33672;SDS011;20011;51.510;9.942;2022-09-20T21:02:55;2.55;;;1.92;;
33672;SDS011;20011;51.510;9.942;2022-09-20T21:05:24;5.28;;;2.28;;
33672;SDS011;20011;51.510;9.942;2022-09-20T21:07:51;4.22;;;1.92;;
33672;SDS011;20011;51.510;9.942;2022-09-20T21:10:20;4.85;;;2.25;;
33672;SDS011;20011;51.510;9.942;2022-09-20T21:12:49;2.67;;;1.75;;
33672;SDS011;20011;51.510;9.942;2022-09-20T21:15:19;3.05;;;2.05;;
33672;SDS011;20011;51.510;9.942;2022-09-20T21:17:53;3.72;;;2.03;;
33672;SDS011;20011;51.510;9.942;2022-09-20T21:20:20;3.67;;;2.20;;